createdAt,value
2018-09-30T00:03:00.649Z,3.07
2018-09-30T00:06:05.980Z,2.97
2018-09-30T00:09:10.704Z,2.80
2018-09-30T00:12:15.053Z,3.17
2018-09-30T00:15:19.580Z,3.23
2018-09-30T00:18:27.920Z,3.37
2018-09-30T00:21:32.314Z,3.03
2018-09-30T00:24:41.987Z,3.23
2018-09-30T00:27:46.358Z,2.97
2018-09-30T00:30:50.887Z,2.53
2018-09-30T00:34:00.676Z,2.83
2018-09-30T00:37:04.979Z,2.70
2018-09-30T00:40:09.512Z,3.27
2018-09-30T00:43:13.815Z,3.20
2018-09-30T00:46:18.272Z,3.00
2018-09-30T00:49:22.673Z,3.00
2018-09-30T00:52:27.071Z,3.33
2018-09-30T00:55:31.408Z,2.83
2018-09-30T00:58:35.916Z,3.13
2018-09-30T01:01:40.251Z,2.40
2018-09-30T01:04:44.560Z,2.80
2018-09-30T01:07:48.881Z,3.00
2018-09-30T01:10:53.217Z,3.10
2018-09-30T01:13:57.520Z,3.07
2018-09-30T01:17:01.935Z,2.97
2018-09-30T01:20:06.204Z,3.40
2018-09-30T01:23:10.513Z,3.13
2018-09-30T01:26:15.100Z,3.50
2018-09-30T01:29:19.426Z,3.00
2018-09-30T01:32:23.796Z,3.07
2018-09-30T01:35:28.189Z,3.50
2018-09-30T01:38:32.621Z,3.50
2018-09-30T01:41:37.123Z,3.13
2018-09-30T01:44:41.631Z,3.40
2018-09-30T01:47:46.018Z,4.30
2018-09-30T01:50:50.648Z,3.87
2018-09-30T01:53:55.154Z,3.53
2018-09-30T01:56:59.472Z,3.00
2018-09-30T02:00:03.956Z,2.90
2018-09-30T02:03:08.403Z,3.43
2018-09-30T02:06:12.745Z,3.00
2018-09-30T02:09:17.050Z,2.83
2018-09-30T02:12:21.373Z,3.67
2018-09-30T02:15:25.785Z,3.10
2018-09-30T02:18:30.139Z,3.17
2018-09-30T02:21:34.564Z,3.03
2018-09-30T02:24:39.038Z,3.63
2018-09-30T02:27:43.297Z,2.90
2018-09-30T02:30:47.547Z,2.63
2018-09-30T02:33:51.837Z,2.60
2018-09-30T02:36:56.152Z,2.73
2018-09-30T02:40:00.481Z,2.20
2018-09-30T02:43:04.801Z,2.20
2018-09-30T02:46:09.333Z,2.33
2018-09-30T02:49:13.652Z,2.60
2018-09-30T02:52:17.952Z,1.93
2018-09-30T02:55:22.233Z,2.57
2018-09-30T02:58:26.509Z,2.50
2018-09-30T03:01:30.828Z,3.20
2018-09-30T03:04:35.165Z,2.00
2018-09-30T03:07:44.748Z,1.90
2018-09-30T03:10:49.013Z,1.70
2018-09-30T03:13:53.335Z,4.13
2018-09-30T03:16:57.680Z,2.50
2018-09-30T03:20:01.996Z,2.60
2018-09-30T03:23:06.258Z,2.37
2018-09-30T03:26:10.530Z,2.57
2018-09-30T03:29:14.792Z,2.60
2018-09-30T03:32:19.077Z,2.87
2018-09-30T03:35:23.389Z,2.33
2018-09-30T03:38:27.686Z,2.33
2018-09-30T03:41:31.954Z,2.50
2018-09-30T03:44:36.235Z,2.73
2018-09-30T03:47:40.728Z,2.37
2018-09-30T03:50:45.030Z,2.70
2018-09-30T03:53:49.354Z,2.50
2018-09-30T03:56:53.747Z,2.07
2018-09-30T03:59:58.039Z,2.90
2018-09-30T04:03:02.379Z,3.07
2018-09-30T04:06:06.732Z,2.50
2018-09-30T04:09:11.209Z,2.87
2018-09-30T04:12:15.571Z,2.50
2018-09-30T04:15:19.878Z,2.13
2018-09-30T04:18:24.184Z,2.40
2018-09-30T04:21:28.528Z,2.60
2018-09-30T04:24:32.826Z,2.37
2018-09-30T04:27:37.168Z,2.97
2018-09-30T04:30:41.472Z,2.20
2018-09-30T04:33:45.817Z,2.53
2018-09-30T04:36:50.082Z,2.90
2018-09-30T04:39:54.350Z,2.90
2018-09-30T04:42:58.696Z,2.50
2018-09-30T04:46:02.985Z,3.23
2018-09-30T04:49:07.532Z,2.80
2018-09-30T04:52:11.842Z,3.30
2018-09-30T04:55:16.248Z,3.30
2018-09-30T04:58:20.501Z,3.60
2018-09-30T05:01:24.817Z,2.77
2018-09-30T05:04:29.129Z,3.23
2018-09-30T05:07:33.392Z,3.00
2018-09-30T05:10:37.673Z,3.33
2018-09-30T05:13:42.016Z,4.17
2018-09-30T05:16:46.296Z,3.50
2018-09-30T05:19:50.628Z,3.40
2018-09-30T05:22:55.733Z,3.87
2018-09-30T05:26:00.102Z,3.23
2018-09-30T05:29:04.408Z,4.03
2018-09-30T05:32:08.945Z,3.40
2018-09-30T05:35:13.262Z,3.97
2018-09-30T05:38:17.600Z,3.67
2018-09-30T05:41:22.003Z,3.50
2018-09-30T05:44:26.316Z,4.13
2018-09-30T05:47:30.643Z,3.90
2018-09-30T05:50:34.976Z,4.27
2018-09-30T05:53:39.281Z,3.83
2018-09-30T05:56:43.641Z,3.53
2018-09-30T05:59:47.923Z,3.90
2018-09-30T06:02:52.182Z,3.83
2018-09-30T06:05:56.454Z,4.10
2018-09-30T06:09:00.817Z,4.60
2018-09-30T06:12:05.110Z,4.10
2018-09-30T06:15:09.388Z,3.70
2018-09-30T06:18:13.655Z,3.83
2018-09-30T06:21:17.916Z,3.60
2018-09-30T06:24:22.207Z,3.57
2018-09-30T06:27:26.536Z,3.50
2018-09-30T06:30:30.840Z,3.73
2018-09-30T06:33:35.164Z,4.10
2018-09-30T06:36:39.522Z,4.10
2018-09-30T06:39:43.773Z,3.80
2018-09-30T06:42:48.133Z,3.03
2018-09-30T06:45:52.456Z,3.97
2018-09-30T06:48:56.707Z,3.60
2018-09-30T06:52:01.148Z,3.80
2018-09-30T06:55:05.450Z,3.77
2018-09-30T06:58:09.737Z,3.90
2018-09-30T07:01:14.115Z,4.03
2018-09-30T07:04:18.317Z,4.10
2018-09-30T07:07:22.596Z,4.57
2018-09-30T07:10:26.922Z,4.70
2018-09-30T07:13:31.243Z,3.33
2018-09-30T07:16:35.571Z,4.07
2018-09-30T07:19:39.921Z,4.67
2018-09-30T07:22:44.237Z,4.63
2018-09-30T07:25:48.528Z,3.60
2018-09-30T07:28:52.841Z,3.63
2018-09-30T07:31:57.191Z,4.00
2018-09-30T07:35:01.509Z,4.77
2018-09-30T07:38:05.782Z,3.97
2018-09-30T07:41:10.034Z,4.33
2018-09-30T07:44:14.400Z,3.90
2018-09-30T07:47:18.694Z,4.50
2018-09-30T07:50:23.007Z,3.70
2018-09-30T07:53:27.344Z,4.23
2018-09-30T07:56:31.661Z,3.67
2018-09-30T07:59:35.983Z,3.83
2018-09-30T08:02:40.302Z,3.60
2018-09-30T08:05:44.654Z,4.50
2018-09-30T08:08:49.051Z,3.73
2018-09-30T08:11:53.378Z,4.30
2018-09-30T08:14:57.695Z,4.03
2018-09-30T08:18:02.006Z,4.77
2018-09-30T08:21:06.482Z,4.33
2018-09-30T08:24:10.816Z,3.73
2018-09-30T08:27:15.094Z,4.20
2018-09-30T08:30:19.399Z,3.60
2018-09-30T08:33:23.732Z,3.87
2018-09-30T08:36:28.059Z,3.40
2018-09-30T08:39:32.306Z,4.83
2018-09-30T08:42:36.687Z,4.03
2018-09-30T08:45:40.993Z,4.67
2018-09-30T08:48:45.312Z,3.60
2018-09-30T08:51:49.660Z,3.47
2018-09-30T08:54:54.050Z,3.57
2018-09-30T08:57:58.384Z,3.47
2018-09-30T09:01:02.751Z,4.03
2018-09-30T09:04:07.268Z,4.60
2018-09-30T09:07:11.672Z,4.47
2018-09-30T09:10:15.963Z,4.47
2018-09-30T09:13:20.267Z,4.10
2018-09-30T09:16:24.650Z,4.20
2018-09-30T09:19:28.941Z,3.80
2018-09-30T09:22:33.418Z,4.23
2018-09-30T09:25:37.852Z,4.87
2018-09-30T09:28:42.229Z,4.87
2018-09-30T09:31:46.620Z,4.07
2018-09-30T09:34:50.899Z,5.33
2018-09-30T09:37:55.181Z,4.10
2018-09-30T09:40:59.497Z,4.50
2018-09-30T09:44:03.813Z,3.87
2018-09-30T09:47:08.108Z,4.60
2018-09-30T09:50:12.430Z,3.73
2018-09-30T09:53:16.718Z,4.03
2018-09-30T09:56:21.185Z,3.77
2018-09-30T09:59:25.565Z,4.03
2018-09-30T10:02:29.811Z,4.13
2018-09-30T10:05:34.120Z,4.17
2018-09-30T10:08:38.432Z,4.17
2018-09-30T10:11:42.675Z,4.60
2018-09-30T10:14:47.004Z,4.27
2018-09-30T10:17:51.327Z,3.67
2018-09-30T10:20:55.676Z,2.87
2018-09-30T10:23:59.956Z,3.50
2018-09-30T10:27:04.251Z,3.40
2018-09-30T10:30:08.579Z,3.33
2018-09-30T10:33:12.819Z,4.30
2018-09-30T10:36:17.122Z,3.33
2018-09-30T10:39:21.654Z,3.43
2018-09-30T10:42:25.773Z,3.27
2018-09-30T10:45:30.098Z,3.30
2018-09-30T10:48:34.428Z,2.93
2018-09-30T10:51:38.730Z,3.07
2018-09-30T10:54:43.069Z,2.80
2018-09-30T10:57:47.400Z,3.10
2018-09-30T11:00:52.427Z,2.57
2018-09-30T11:03:56.704Z,2.67
2018-09-30T11:07:01.311Z,2.67
2018-09-30T11:10:05.718Z,2.80
2018-09-30T11:13:09.983Z,2.50
2018-09-30T11:16:14.303Z,2.67
2018-09-30T11:19:18.623Z,2.87
2018-09-30T11:22:23.011Z,2.90
2018-09-30T11:25:27.261Z,2.60
2018-09-30T11:28:31.620Z,3.00
2018-09-30T11:31:35.898Z,1.97
2018-09-30T11:34:40.253Z,2.40
2018-09-30T11:37:44.541Z,2.50
2018-09-30T11:40:48.898Z,2.37
2018-09-30T11:43:53.322Z,2.13
2018-09-30T11:46:57.613Z,2.23
2018-09-30T11:50:01.946Z,1.97
2018-09-30T11:53:06.233Z,2.40
2018-09-30T11:56:11.795Z,2.10
2018-09-30T11:59:17.473Z,2.37
2018-09-30T12:02:21.845Z,1.97
2018-09-30T12:05:26.112Z,2.20
2018-09-30T12:08:30.564Z,2.37
2018-09-30T12:11:34.880Z,1.87
2018-09-30T12:14:39.188Z,2.03
2018-09-30T12:17:43.472Z,1.90
2018-09-30T12:20:48.115Z,1.40
2018-09-30T12:23:52.417Z,1.73
2018-09-30T12:26:56.702Z,1.80
2018-09-30T12:30:01.013Z,1.40
2018-09-30T12:33:05.318Z,1.70
2018-09-30T12:36:09.630Z,1.60
2018-09-30T12:39:13.976Z,1.73
2018-09-30T12:42:18.378Z,1.63
2018-09-30T12:45:22.639Z,1.20
2018-09-30T12:48:26.931Z,1.50
2018-09-30T12:51:31.512Z,1.50
2018-09-30T12:54:35.824Z,1.30
2018-09-30T12:57:40.112Z,1.43
2018-09-30T13:00:44.413Z,1.20
2018-09-30T13:03:48.701Z,1.20
2018-09-30T13:06:53.060Z,1.20
2018-09-30T13:09:57.399Z,1.30
2018-09-30T13:13:01.710Z,1.40
2018-09-30T13:16:06.076Z,1.00
2018-09-30T13:19:10.444Z,1.90
2018-09-30T13:22:14.785Z,1.43
2018-09-30T13:25:19.123Z,1.37
2018-09-30T13:28:23.511Z,1.20
2018-09-30T13:31:27.835Z,1.40
2018-09-30T13:34:32.120Z,1.40
2018-09-30T13:37:36.460Z,1.30
2018-09-30T13:40:40.835Z,1.30
2018-09-30T13:43:45.094Z,1.27
2018-09-30T13:46:49.442Z,1.30
2018-09-30T13:49:53.742Z,1.30
2018-09-30T13:52:58.106Z,1.60
2018-09-30T13:56:02.443Z,1.20
2018-09-30T13:59:06.842Z,1.47
2018-09-30T14:02:11.172Z,1.73
2018-09-30T14:05:15.486Z,1.17
2018-09-30T14:08:19.788Z,1.37
2018-09-30T14:11:24.072Z,1.40
2018-09-30T14:14:28.445Z,1.30
2018-09-30T14:17:32.756Z,1.50
2018-09-30T14:20:37.043Z,1.60
2018-09-30T14:23:41.407Z,1.67
2018-09-30T14:26:45.882Z,1.30
2018-09-30T14:29:50.297Z,1.40
2018-09-30T14:32:54.709Z,1.40
2018-09-30T14:35:59.094Z,1.27
2018-09-30T14:39:04.777Z,2.37
2018-09-30T14:42:09.184Z,1.10
2018-09-30T14:45:13.519Z,1.53
2018-09-30T14:48:17.863Z,0.90
2018-09-30T14:51:22.240Z,1.47
2018-09-30T14:54:26.625Z,1.40
2018-09-30T14:57:30.979Z,1.63
2018-09-30T15:00:35.313Z,1.30
2018-09-30T15:03:39.621Z,1.23
2018-09-30T15:06:43.945Z,1.47
2018-09-30T15:09:48.309Z,2.17
2018-09-30T15:12:52.602Z,1.37
2018-09-30T15:15:56.884Z,1.57
2018-09-30T15:19:01.244Z,1.27
2018-09-30T15:22:05.585Z,1.60
2018-09-30T15:25:09.886Z,1.63
2018-09-30T15:28:14.207Z,2.13
2018-09-30T15:31:18.526Z,1.50
2018-09-30T15:34:22.792Z,1.57
2018-09-30T15:37:27.086Z,1.47
2018-09-30T15:40:31.366Z,1.50
2018-09-30T15:43:35.837Z,1.50
2018-09-30T15:46:40.107Z,1.50
2018-09-30T15:49:44.437Z,1.80
2018-09-30T15:52:48.717Z,1.50
2018-09-30T15:55:53.005Z,1.47
2018-09-30T15:58:57.300Z,1.50
2018-09-30T16:02:01.622Z,1.30
2018-09-30T16:05:06.234Z,1.50
2018-09-30T16:08:10.602Z,1.83
2018-09-30T16:11:14.884Z,1.50
2018-09-30T16:14:19.197Z,1.40
2018-09-30T16:17:23.578Z,1.20
2018-09-30T16:20:27.979Z,1.50
2018-09-30T16:23:32.313Z,1.70
2018-09-30T16:26:36.688Z,1.63
2018-09-30T16:29:41.064Z,1.80
2018-09-30T16:32:45.403Z,1.57
2018-09-30T16:35:49.761Z,1.50
2018-09-30T16:38:54.141Z,1.60
2018-09-30T16:41:58.479Z,2.97
2018-09-30T16:45:02.919Z,1.73
2018-09-30T16:48:07.274Z,1.73
2018-09-30T16:51:11.653Z,1.60
2018-09-30T16:54:16.035Z,1.93
2018-09-30T16:57:20.385Z,1.80
2018-09-30T17:00:27.844Z,1.70
2018-09-30T17:03:32.298Z,2.07
2018-09-30T17:06:36.594Z,2.40
2018-09-30T17:09:41.026Z,2.00
2018-09-30T17:12:45.379Z,1.80
2018-09-30T17:15:49.761Z,1.70
2018-09-30T17:18:54.160Z,2.10
2018-09-30T17:21:58.495Z,2.03
2018-09-30T17:25:02.845Z,2.03
2018-09-30T17:28:07.762Z,2.33
2018-09-30T17:31:12.260Z,2.13
2018-09-30T17:34:16.844Z,2.13
2018-09-30T17:37:21.318Z,2.03
2018-09-30T17:40:25.768Z,2.20
2018-09-30T17:43:30.254Z,2.20
2018-09-30T17:46:34.621Z,2.40
2018-09-30T17:49:39.203Z,2.30
2018-09-30T17:52:43.600Z,2.77
2018-09-30T17:55:48.363Z,2.43
2018-09-30T17:58:52.789Z,2.60
2018-09-30T18:01:57.548Z,3.13
2018-09-30T18:05:01.944Z,2.70
2018-09-30T18:08:06.554Z,3.33
2018-09-30T18:11:11.189Z,2.73
2018-09-30T18:14:16.273Z,2.73
2018-09-30T18:17:23.086Z,2.77
2018-09-30T18:20:27.922Z,3.50
2018-09-30T18:23:32.693Z,3.10
2018-09-30T18:26:37.443Z,2.93
2018-09-30T18:29:42.324Z,3.27
2018-09-30T18:32:47.146Z,3.30
2018-09-30T18:35:51.932Z,3.57
2018-09-30T18:38:56.697Z,3.77
2018-09-30T18:42:01.374Z,4.27
2018-09-30T18:45:06.263Z,3.50
2018-09-30T18:48:11.511Z,3.60
2018-09-30T18:51:16.230Z,3.60
2018-09-30T18:54:20.984Z,4.07
2018-09-30T18:57:26.717Z,3.47
2018-09-30T19:00:32.193Z,3.80
2018-09-30T19:03:36.999Z,3.93
2018-09-30T19:06:41.818Z,3.33
2018-09-30T19:09:46.609Z,4.00
2018-09-30T19:12:51.300Z,4.10
2018-09-30T19:15:56.065Z,4.10
2018-09-30T19:19:00.745Z,4.33
2018-09-30T19:22:05.530Z,4.30
2018-09-30T19:25:10.171Z,3.93
2018-09-30T19:28:15.032Z,4.57
2018-09-30T19:31:20.357Z,4.27
2018-09-30T19:34:25.259Z,4.80
2018-09-30T19:37:30.027Z,4.40
2018-09-30T19:40:34.852Z,4.90
2018-09-30T19:43:39.600Z,4.40
2018-09-30T19:46:44.232Z,4.63
2018-09-30T19:49:48.922Z,4.20
2018-09-30T19:52:53.562Z,5.10
2018-09-30T19:55:58.356Z,5.30
2018-09-30T19:59:03.062Z,4.90
2018-09-30T20:02:08.085Z,5.13
2018-09-30T20:05:12.625Z,5.07
2018-09-30T20:08:17.151Z,5.17
2018-09-30T20:11:21.449Z,4.80
2018-09-30T20:14:25.866Z,4.13
2018-09-30T20:17:30.234Z,3.00
2018-09-30T20:20:34.618Z,2.70
2018-09-30T20:23:39.003Z,2.60
2018-09-30T20:26:43.445Z,2.60
2018-09-30T20:29:47.836Z,2.60
2018-09-30T20:32:52.176Z,2.37
2018-09-30T20:35:56.474Z,2.13
2018-09-30T20:39:00.818Z,2.13
2018-09-30T20:42:05.158Z,1.80
2018-09-30T20:45:09.541Z,2.13
2018-09-30T20:48:13.893Z,2.33
2018-09-30T20:51:18.163Z,2.20
2018-09-30T20:54:22.666Z,2.27
2018-09-30T20:57:27.054Z,2.17
2018-09-30T21:00:31.490Z,2.27
2018-09-30T21:03:35.888Z,2.30
2018-09-30T21:06:41.598Z,2.30
2018-09-30T21:09:46.025Z,2.40
2018-09-30T21:12:50.402Z,2.33
2018-09-30T21:15:54.886Z,1.80
2018-09-30T21:18:59.263Z,2.80
2018-09-30T21:22:03.563Z,2.40
2018-09-30T21:25:08.024Z,2.03
2018-09-30T21:28:12.422Z,2.87
2018-09-30T21:31:16.710Z,2.10
2018-09-30T21:34:21.218Z,2.20
2018-09-30T21:37:25.857Z,2.67
2018-09-30T21:40:30.194Z,3.20
2018-09-30T21:43:34.540Z,3.27
2018-09-30T21:46:39.309Z,2.90
2018-09-30T21:49:43.691Z,2.60
2018-09-30T21:52:48.108Z,2.50
2018-09-30T21:55:53.312Z,2.50
2018-09-30T21:58:58.546Z,2.13
2018-09-30T22:02:03.641Z,2.90
2018-09-30T22:05:08.014Z,2.60
2018-09-30T22:08:12.695Z,2.33
2018-09-30T22:11:17.021Z,2.53
2018-09-30T22:14:21.349Z,2.50
2018-09-30T22:17:25.661Z,2.70
2018-09-30T22:20:29.999Z,3.23
2018-09-30T22:23:34.412Z,2.73
2018-09-30T22:26:38.808Z,2.00
2018-09-30T22:29:43.123Z,2.90
2018-09-30T22:32:47.617Z,2.40
2018-09-30T22:35:51.902Z,2.27
2018-09-30T22:38:56.190Z,2.90
2018-09-30T22:42:00.478Z,2.47
2018-09-30T22:45:05.106Z,2.20
2018-09-30T22:48:09.501Z,2.70
2018-09-30T22:51:13.843Z,2.20
2018-09-30T22:54:18.119Z,2.20
2018-09-30T22:57:22.482Z,2.30
2018-09-30T23:00:26.918Z,2.37
2018-09-30T23:03:31.322Z,2.10
2018-09-30T23:06:35.653Z,2.70
2018-09-30T23:09:40.029Z,2.30
2018-09-30T23:12:44.362Z,2.67
2018-09-30T23:15:48.640Z,2.60
2018-09-30T23:18:53.139Z,2.50
2018-09-30T23:21:57.673Z,3.17
2018-09-30T23:25:03.154Z,2.87
2018-09-30T23:28:07.457Z,2.50
2018-09-30T23:31:11.816Z,2.83
2018-09-30T23:34:16.132Z,2.70
2018-09-30T23:37:20.482Z,2.80
2018-09-30T23:40:24.895Z,2.40
2018-09-30T23:43:29.150Z,2.70
2018-09-30T23:46:33.676Z,2.40
2018-09-30T23:49:37.944Z,1.97
2018-09-30T23:52:42.267Z,2.60
2018-09-30T23:55:46.576Z,2.83
2018-09-30T23:58:51.008Z,2.37
